Time;durP1;ratioP1;P1;durP2;ratioP2;P2;SDS_P1;SDS_P2;PMS_P1;PMS_P2;Temp;Humidity;BMP_temperature;BMP_pressure;BME280_temperature;BME280_humidity;BME280_pressure;Samples;Min_cycle;Max_cycle;Signal;HPM_P1;HPM_P2
2023/09/24 00:02:12;;;;;;;4.03;2.70;;;14.80;99.90;;;;;;5017883;28;20423;-77
2023/09/24 00:04:39;;;;;;;5.50;2.97;;;14.90;99.90;;;;;;5022404;28;20442;-76
2023/09/24 00:07:05;;;;;;;4.27;2.90;;;14.90;99.90;;;;;;5015693;28;20422;-77
2023/09/24 00:09:31;;;;;;;5.73;2.80;;;14.80;99.90;;;;;;5031647;28;20424;-77
2023/09/24 00:11:57;;;;;;;4.17;3.30;;;14.80;99.90;;;;;;5014141;28;20493;-77
2023/09/24 00:14:26;;;;;;;4.10;3.00;;;14.90;99.90;;;;;;5017461;28;20439;-78
2023/09/24 00:16:51;;;;;;;4.80;3.13;;;14.90;99.90;;;;;;5015488;28;20181;-77
2023/09/24 00:19:17;;;;;;;7.03;2.87;;;14.90;99.90;;;;;;5020042;28;20419;-78
2023/09/24 00:21:43;;;;;;;4.40;3.00;;;14.80;99.90;;;;;;5018460;28;20191;-78
2023/09/24 00:24:10;;;;;;;4.23;3.50;;;14.70;99.90;;;;;;5001351;28;20235;-79
2023/09/24 00:26:35;;;;;;;5.80;2.73;;;14.80;99.90;;;;;;5020170;28;20415;-77
2023/09/24 00:29:02;;;;;;;3.67;2.80;;;14.70;99.90;;;;;;5014065;28;20801;-78
2023/09/24 00:31:27;;;;;;;5.13;3.30;;;14.60;99.90;;;;;;5035592;28;20587;-79
2023/09/24 00:33:53;;;;;;;4.30;3.20;;;14.60;99.90;;;;;;5016340;28;20480;-77
2023/09/24 00:36:19;;;;;;;4.00;3.27;;;14.70;99.90;;;;;;5021447;28;20538;-76
2023/09/24 00:38:45;;;;;;;4.60;3.30;;;14.80;99.90;;;;;;5015209;28;20188;-76
2023/09/24 00:41:10;;;;;;;5.03;3.90;;;14.70;99.90;;;;;;5021609;28;20435;-77
2023/09/24 00:43:36;;;;;;;4.03;2.90;;;14.60;99.90;;;;;;5018493;28;20216;-78
2023/09/24 00:46:05;;;;;;;4.93;3.30;;;14.50;99.90;;;;;;5018636;28;20177;-76
2023/09/24 00:48:32;;;;;;;4.63;3.43;;;14.50;99.90;;;;;;5016990;28;20244;-78
2023/09/24 00:51:02;;;;;;;4.47;2.93;;;14.50;99.90;;;;;;5032513;28;20420;-77
2023/09/24 00:53:31;;;;;;;3.30;2.80;;;14.40;99.90;;;;;;5003193;28;20455;-76
2023/09/24 00:55:57;;;;;;;6.53;3.23;;;14.50;99.90;;;;;;5028392;28;20428;-78
2023/09/24 00:58:25;;;;;;;3.30;2.70;;;14.50;99.90;;;;;;5040828;28;20422;-80
2023/09/24 01:00:55;;;;;;;4.50;2.90;;;14.40;99.90;;;;;;5015592;28;20516;-77
2023/09/24 01:03:24;;;;;;;3.80;2.87;;;14.30;99.90;;;;;;4992338;28;20554;-78
2023/09/24 01:05:53;;;;;;;4.23;3.00;;;14.20;99.90;;;;;;5020122;28;20407;-77
2023/09/24 01:08:21;;;;;;;6.60;3.17;;;14.20;99.90;;;;;;5037725;28;20411;-78
2023/09/24 01:10:47;;;;;;;4.57;3.40;;;14.20;99.90;;;;;;5017018;28;20526;-76
2023/09/24 01:13:20;;;;;;;5.90;3.30;;;14.20;99.90;;;;;;5001300;28;20964;-77
2023/09/24 01:15:52;;;;;;;9.40;3.00;;;14.10;99.90;;;;;;5019697;28;20442;-78
2023/09/24 01:18:21;;;;;;;3.67;3.27;;;14.10;99.90;;;;;;5017032;28;20446;-77
2023/09/24 01:20:47;;;;;;;3.90;3.20;;;14.20;99.90;;;;;;5021622;28;20526;-78
2023/09/24 01:23:14;;;;;;;8.23;3.50;;;14.20;99.90;;;;;;5015409;28;20613;-76
2023/09/24 01:25:42;;;;;;;3.60;2.90;;;14.20;99.90;;;;;;5016394;28;20192;-76
2023/09/24 01:28:08;;;;;;;4.77;3.30;;;14.20;99.90;;;;;;5031367;28;20447;-75
2023/09/24 01:30:34;;;;;;;3.90;3.20;;;14.20;99.90;;;;;;5016481;28;20411;-76
2023/09/24 01:33:01;;;;;;;8.73;4.70;;;14.20;99.90;;;;;;4995147;28;20273;-77
2023/09/24 01:35:28;;;;;;;7.77;3.60;;;14.10;99.90;;;;;;5014235;28;20514;-77
2023/09/24 01:37:59;;;;;;;5.97;2.83;;;14.10;99.90;;;;;;5019087;28;20420;-79
2023/09/24 01:40:32;;;;;;;5.93;3.43;;;14.10;99.90;;;;;;4999028;28;20427;-76
2023/09/24 01:42:58;;;;;;;10.73;3.20;;;14.10;99.90;;;;;;4995849;28;20482;-77
2023/09/24 01:45:25;;;;;;;4.20;3.20;;;14.00;99.90;;;;;;5018264;28;20440;-77
2023/09/24 01:47:51;;;;;;;5.90;3.13;;;14.00;99.90;;;;;;5013849;28;20227;-78
2023/09/24 01:50:17;;;;;;;2.90;2.40;;;14.00;99.90;;;;;;5034941;28;20463;-77
2023/09/24 01:52:45;;;;;;;3.50;2.93;;;13.90;99.90;;;;;;5014948;28;20305;-79
2023/09/24 01:55:19;;;;;;;5.17;2.70;;;13.90;99.90;;;;;;5014984;28;20633;-77
2023/09/24 01:57:45;;;;;;;3.10;2.60;;;14.00;99.90;;;;;;5023973;28;20423;-77
2023/09/24 02:00:13;;;;;;;3.57;2.80;;;14.00;99.90;;;;;;5010060;28;20423;-77
2023/09/24 02:02:39;;;;;;;4.80;2.90;;;14.00;99.90;;;;;;5016717;28;20505;-77
2023/09/24 02:05:10;;;;;;;3.50;2.80;;;14.00;99.90;;;;;;5014793;28;20470;-77
2023/09/24 02:07:40;;;;;;;6.87;2.53;;;14.00;99.90;;;;;;5019390;28;20502;-77
2023/09/24 02:10:06;;;;;;;3.60;2.83;;;14.00;99.90;;;;;;5015963;28;20431;-78
2023/09/24 02:12:35;;;;;;;5.03;2.77;;;13.90;99.90;;;;;;5017784;28;20436;-78
2023/09/24 02:15:04;;;;;;;4.17;2.80;;;13.90;99.90;;;;;;5000249;28;20443;-78
2023/09/24 02:17:30;;;;;;;3.80;2.90;;;13.90;99.90;;;;;;5018881;28;20470;-78
2023/09/24 02:19:55;;;;;;;4.20;2.77;;;13.90;99.90;;;;;;5019629;28;20818;-78
2023/09/24 02:22:22;;;;;;;3.30;2.50;;;13.80;99.90;;;;;;5001149;28;20208;-78
2023/09/24 02:24:48;;;;;;;5.80;3.10;;;13.70;99.90;;;;;;5012091;28;20175;-78
2023/09/24 02:27:14;;;;;;;3.90;2.70;;;13.80;99.90;;;;;;5016601;28;20450;-77
2023/09/24 02:29:39;;;;;;;4.33;3.03;;;13.80;99.90;;;;;;5021806;28;20678;-78
2023/09/24 02:32:06;;;;;;;4.30;2.70;;;13.70;99.90;;;;;;5012522;28;20184;-77
2023/09/24 02:34:31;;;;;;;4.00;2.60;;;13.80;99.90;;;;;;5021949;28;20626;-77
2023/09/24 02:36:57;;;;;;;3.97;2.73;;;13.70;99.90;;;;;;5013146;28;20515;-76
2023/09/24 02:39:23;;;;;;;3.77;2.80;;;13.70;99.90;;;;;;5020256;28;20319;-77
2023/09/24 02:41:50;;;;;;;5.83;3.13;;;13.70;99.90;;;;;;5015960;28;20534;-77
2023/09/24 02:44:17;;;;;;;3.80;2.60;;;13.70;99.90;;;;;;5019605;28;20596;-78
2023/09/24 02:46:44;;;;;;;4.10;2.47;;;13.70;99.90;;;;;;5016888;28;20625;-76
2023/09/24 02:49:10;;;;;;;3.77;2.77;;;13.60;99.90;;;;;;5025579;28;20456;-76
2023/09/24 02:51:35;;;;;;;3.33;2.30;;;13.60;99.90;;;;;;5037467;28;21156;-76
2023/09/24 02:54:02;;;;;;;7.27;3.33;;;13.50;99.90;;;;;;5022637;28;20462;-78
2023/09/24 02:56:28;;;;;;;3.43;2.13;;;13.50;99.90;;;;;;5035417;28;20618;-78
2023/09/24 02:58:54;;;;;;;5.90;2.30;;;13.40;99.90;;;;;;5024165;28;20556;-78
2023/09/24 03:01:20;;;;;;;5.50;2.70;;;13.50;99.90;;;;;;5021843;28;20541;-78
2023/09/24 03:03:45;;;;;;;3.27;2.70;;;13.40;99.90;;;;;;5029337;28;20211;-78
2023/09/24 03:06:12;;;;;;;4.90;2.80;;;13.40;99.90;;;;;;5024218;28;20184;-78
2023/09/24 03:08:38;;;;;;;4.10;2.50;;;13.30;99.90;;;;;;5047038;28;20202;-79
2023/09/24 03:11:14;;;;;;;3.60;2.57;;;13.30;99.90;;;;;;5008340;28;20447;-78
2023/09/24 03:13:40;;;;;;;3.13;2.60;;;13.30;99.90;;;;;;5027946;28;20220;-79
2023/09/24 03:16:06;;;;;;;5.47;2.43;;;13.30;99.90;;;;;;5031425;28;20415;-79
2023/09/24 03:18:32;;;;;;;4.07;2.90;;;13.40;99.90;;;;;;5038623;28;20432;-78
2023/09/24 03:20:58;;;;;;;4.83;2.30;;;13.40;99.90;;;;;;5022086;28;20279;-78
2023/09/24 03:23:24;;;;;;;5.33;3.00;;;13.40;99.90;;;;;;5026043;28;21020;-79
2023/09/24 03:25:50;;;;;;;5.77;2.70;;;13.50;99.90;;;;;;5027977;28;20241;-79
2023/09/24 03:28:15;;;;;;;4.67;2.67;;;13.40;99.90;;;;;;5027696;28;20439;-79
2023/09/24 03:30:41;;;;;;;2.90;2.40;;;13.40;99.90;;;;;;5028409;28;20327;-79
2023/09/24 03:33:07;;;;;;;5.00;2.83;;;13.40;99.90;;;;;;5014184;28;20410;-79
2023/09/24 03:35:33;;;;;;;4.10;2.60;;;13.40;99.90;;;;;;5017830;28;20193;-79
2023/09/24 03:37:59;;;;;;;3.33;2.67;;;13.40;99.90;;;;;;5022828;28;20185;-79
2023/09/24 03:40:26;;;;;;;2.80;2.17;;;13.40;99.90;;;;;;5019370;28;20454;-79
2023/09/24 03:42:53;;;;;;;5.27;2.60;;;13.40;99.90;;;;;;5023508;28;20220;-80
2023/09/24 03:45:20;;;;;;;3.90;2.50;;;13.40;99.90;;;;;;5026468;28;20418;-79
2023/09/24 03:47:46;;;;;;;6.40;2.83;;;13.40;99.90;;;;;;5036265;28;20514;-79
2023/09/24 03:50:14;;;;;;;4.20;2.73;;;13.40;99.90;;;;;;5023988;28;20431;-80
2023/09/24 03:52:40;;;;;;;2.97;2.03;;;13.40;99.90;;;;;;5024286;28;20845;-79
2023/09/24 03:55:06;;;;;;;5.70;2.40;;;13.40;99.90;;;;;;5006373;28;20885;-77
2023/09/24 03:57:34;;;;;;;3.30;2.40;;;13.40;99.90;;;;;;5021510;28;20506;-77
2023/09/24 04:00:00;;;;;;;3.00;2.30;;;13.40;99.90;;;;;;5018819;28;20426;-77
2023/09/24 04:02:28;;;;;;;4.40;2.57;;;13.40;99.90;;;;;;5030590;28;20455;-76
2023/09/24 04:04:53;;;;;;;5.23;2.93;;;13.40;99.90;;;;;;5020047;28;20205;-77
2023/09/24 04:07:20;;;;;;;3.27;2.40;;;13.40;99.90;;;;;;4999650;28;20960;-76
2023/09/24 04:09:47;;;;;;;4.93;2.53;;;13.40;99.90;;;;;;5020709;28;20651;-76
2023/09/24 04:12:13;;;;;;;5.63;3.03;;;13.40;99.90;;;;;;5020812;28;20473;-76
2023/09/24 04:14:39;;;;;;;5.90;3.60;;;13.40;99.90;;;;;;5001744;28;20427;-77
2023/09/24 04:17:09;;;;;;;3.53;2.47;;;13.40;99.90;;;;;;5021787;28;20176;-77
2023/09/24 04:19:35;;;;;;;5.80;2.90;;;13.40;99.90;;;;;;5022475;28;20984;-77
2023/09/24 04:22:00;;;;;;;3.13;2.30;;;13.40;99.90;;;;;;5024243;28;20418;-76
2023/09/24 04:24:26;;;;;;;4.40;2.40;;;13.40;99.90;;;;;;5020381;28;20531;-76
2023/09/24 04:26:53;;;;;;;4.37;2.70;;;13.40;99.90;;;;;;5019013;28;20212;-77
2023/09/24 04:29:19;;;;;;;3.30;2.47;;;13.40;99.90;;;;;;4999090;28;20628;-77
2023/09/24 04:31:44;;;;;;;3.50;2.50;;;13.40;99.90;;;;;;5019837;28;20447;-77
2023/09/24 04:34:12;;;;;;;3.60;2.70;;;13.40;99.90;;;;;;5003703;28;20215;-77
2023/09/24 04:36:41;;;;;;;4.00;2.50;;;13.40;99.90;;;;;;5001403;28;20605;-77
2023/09/24 04:39:10;;;;;;;5.87;2.70;;;13.40;99.90;;;;;;5010989;28;20444;-76
2023/09/24 04:41:40;;;;;;;4.40;2.57;;;13.40;99.90;;;;;;5022977;28;20423;-77
2023/09/24 04:44:06;;;;;;;3.67;2.33;;;13.30;99.90;;;;;;5031857;28;20474;-77
2023/09/24 04:46:32;;;;;;;7.23;2.87;;;13.30;99.90;;;;;;5022737;28;20423;-77
2023/09/24 04:48:57;;;;;;;5.13;2.30;;;13.30;99.90;;;;;;5020151;28;20410;-77
2023/09/24 04:51:23;;;;;;;4.70;3.40;;;13.30;99.90;;;;;;5016510;28;20184;-79
2023/09/24 04:53:49;;;;;;;3.33;2.30;;;13.30;99.90;;;;;;5026378;28;20204;-79
2023/09/24 04:56:14;;;;;;;3.63;2.77;;;13.30;99.90;;;;;;5027561;28;20230;-78
2023/09/24 04:58:40;;;;;;;4.57;2.30;;;13.30;99.90;;;;;;5012927;28;20183;-78
2023/09/24 05:01:06;;;;;;;3.80;2.80;;;13.30;99.90;;;;;;5037677;28;20184;-79
2023/09/24 05:03:34;;;;;;;3.70;2.40;;;13.30;99.90;;;;;;5040276;28;20201;-79
2023/09/24 05:06:00;;;;;;;4.20;2.70;;;13.30;99.90;;;;;;5031917;28;20421;-79
2023/09/24 05:08:26;;;;;;;4.63;2.57;;;13.30;99.90;;;;;;5026868;28;20412;-79
2023/09/24 05:10:52;;;;;;;3.43;2.90;;;13.30;99.90;;;;;;5025603;28;20177;-79
2023/09/24 05:13:17;;;;;;;3.43;2.60;;;13.30;99.90;;;;;;5026776;28;20521;-79
2023/09/24 05:15:59;;;;;;;5.17;3.00;;;13.30;99.90;;;;;;5021856;28;20203;-78
2023/09/24 05:18:28;;;;;;;6.00;2.70;;;13.30;99.90;;;;;;5020796;28;20176;-80
2023/09/24 05:20:54;;;;;;;3.80;2.53;;;13.30;99.90;;;;;;5006740;28;20464;-79
2023/09/24 05:23:21;;;;;;;4.73;3.00;;;13.30;99.90;;;;;;5005882;28;20470;-79
2023/09/24 05:25:47;;;;;;;4.50;2.90;;;13.40;99.90;;;;;;5000944;28;20806;-78
2023/09/24 05:28:14;;;;;;;4.27;3.17;;;13.30;99.90;;;;;;5017081;28;20431;-78
2023/09/24 05:30:39;;;;;;;4.90;3.07;;;13.40;99.90;;;;;;5026913;28;20415;-78
2023/09/24 05:33:06;;;;;;;3.30;2.53;;;13.40;99.90;;;;;;5020739;28;21370;-78
2023/09/24 05:35:32;;;;;;;5.80;2.67;;;13.40;99.90;;;;;;5022367;28;20267;-79
2023/09/24 05:37:57;;;;;;;4.73;2.60;;;13.30;99.90;;;;;;5028239;28;20530;-78
2023/09/24 05:40:23;;;;;;;3.30;3.00;;;13.40;99.90;;;;;;5000972;28;20588;-78
2023/09/24 05:42:49;;;;;;;5.80;2.90;;;13.40;99.90;;;;;;5023623;28;20205;-79
2023/09/24 05:45:14;;;;;;;3.30;2.70;;;13.40;99.90;;;;;;4999540;28;20735;-78
2023/09/24 05:47:41;;;;;;;3.93;3.27;;;13.40;99.90;;;;;;5023570;28;20165;-78
2023/09/24 05:50:07;;;;;;;6.27;3.20;;;13.30;99.90;;;;;;5021311;28;20275;-78
2023/09/24 05:52:32;;;;;;;5.17;2.70;;;13.30;99.90;;;;;;5022908;28;21006;-79
2023/09/24 05:54:58;;;;;;;4.27;3.07;;;13.30;99.90;;;;;;5000979;28;20523;-78
2023/09/24 05:57:27;;;;;;;4.57;2.60;;;13.30;99.90;;;;;;5020747;28;20345;-78
2023/09/24 05:59:56;;;;;;;5.10;2.63;;;13.30;99.90;;;;;;5002110;28;20172;-79
2023/09/24 06:02:25;;;;;;;3.40;2.60;;;13.30;99.90;;;;;;5021184;28;20415;-78
2023/09/24 06:04:53;;;;;;;4.43;2.30;;;13.40;99.90;;;;;;5016689;28;21089;-79
2023/09/24 06:07:18;;;;;;;4.60;3.17;;;13.40;99.90;;;;;;5030131;28;20398;-78
2023/09/24 06:09:44;;;;;;;4.03;2.87;;;13.40;99.90;;;;;;5004193;28;20817;-79
2023/09/24 06:12:10;;;;;;;4.13;2.87;;;13.40;99.90;;;;;;5018354;28;20215;-79
2023/09/24 06:14:35;;;;;;;3.70;2.80;;;13.40;99.90;;;;;;5022076;28;20208;-79
2023/09/24 06:17:02;;;;;;;7.60;3.23;;;13.40;99.90;;;;;;5021205;28;20205;-79
2023/09/24 06:19:28;;;;;;;5.77;3.10;;;13.40;99.90;;;;;;5004397;28;20263;-79
2023/09/24 06:21:54;;;;;;;6.10;2.73;;;13.40;99.90;;;;;;5029642;28;20483;-79
2023/09/24 06:24:20;;;;;;;4.70;3.30;;;13.40;99.90;;;;;;5042237;28;20243;-78
2023/09/24 06:26:46;;;;;;;6.33;2.47;;;13.50;99.90;;;;;;5035971;28;20173;-80
2023/09/24 06:29:12;;;;;;;4.00;2.90;;;13.50;99.90;;;;;;5025262;28;20437;-80
2023/09/24 06:31:38;;;;;;;3.63;2.63;;;13.50;99.90;;;;;;5027261;28;20204;-79
2023/09/24 06:34:03;;;;;;;7.83;2.90;;;13.50;99.90;;;;;;5008174;28;20950;-79
2023/09/24 06:36:29;;;;;;;4.83;3.27;;;13.50;99.90;;;;;;5026339;28;20435;-79
2023/09/24 06:38:56;;;;;;;5.10;3.03;;;13.60;99.90;;;;;;5009192;28;20954;-79
2023/09/24 06:41:22;;;;;;;4.80;2.63;;;13.60;99.90;;;;;;5022056;28;20187;-79
2023/09/24 06:43:48;;;;;;;3.77;2.83;;;13.60;99.90;;;;;;5025058;28;20474;-79
2023/09/24 06:46:13;;;;;;;3.30;2.53;;;13.70;99.90;;;;;;5007284;28;21048;-79
2023/09/24 06:48:39;;;;;;;8.03;2.83;;;13.60;99.90;;;;;;5026642;28;20203;-79
2023/09/24 06:51:09;;;;;;;4.50;3.50;;;13.70;99.90;;;;;;5009213;28;20177;-79
2023/09/24 06:53:37;;;;;;;4.10;2.50;;;13.70;99.90;;;;;;5024514;28;20208;-79
2023/09/24 06:56:05;;;;;;;3.77;2.70;;;13.70;99.90;;;;;;5026857;28;20421;-79
2023/09/24 06:58:33;;;;;;;3.37;2.47;;;13.70;99.90;;;;;;5027561;28;20475;-79
2023/09/24 07:01:00;;;;;;;3.40;2.60;;;13.80;99.90;;;;;;5026966;28;20518;-79
2023/09/24 07:03:26;;;;;;;4.40;2.80;;;13.80;99.90;;;;;;5032222;28;20504;-79
2023/09/24 07:05:52;;;;;;;7.60;3.40;;;13.80;99.90;;;;;;5048053;28;20419;-79
2023/09/24 07:08:17;;;;;;;4.33;2.83;;;13.90;99.90;;;;;;5029343;28;20716;-79
2023/09/24 07:10:43;;;;;;;5.00;2.87;;;13.90;99.90;;;;;;5009353;28;20880;-79
2023/09/24 07:13:08;;;;;;;6.10;3.70;;;13.90;99.90;;;;;;5033871;28;20204;-79
2023/09/24 07:15:34;;;;;;;5.83;2.87;;;14.00;99.90;;;;;;5027490;28;20173;-79
2023/09/24 07:18:00;;;;;;;4.10;2.97;;;14.00;99.90;;;;;;5024449;28;20243;-79
2023/09/24 07:20:25;;;;;;;3.83;2.90;;;14.00;99.90;;;;;;5002807;28;20184;-79
2023/09/24 07:22:51;;;;;;;6.13;2.90;;;14.10;99.90;;;;;;5033300;28;20205;-79
2023/09/24 07:25:17;;;;;;;3.70;2.80;;;14.10;99.90;;;;;;5019171;28;20624;-79
2023/09/24 07:27:42;;;;;;;4.33;3.27;;;14.10;99.90;;;;;;5032638;28;20176;-78
2023/09/24 07:30:09;;;;;;;5.40;2.87;;;14.20;99.90;;;;;;5020778;28;20169;-78
2023/09/24 07:32:34;;;;;;;3.63;3.00;;;14.20;99.90;;;;;;5021498;28;20203;-78
2023/09/24 07:35:00;;;;;;;7.20;3.47;;;14.20;99.90;;;;;;5021715;28;20860;-78
2023/09/24 07:37:25;;;;;;;6.93;3.40;;;14.30;99.90;;;;;;5033310;28;20184;-78
2023/09/24 07:39:51;;;;;;;5.83;3.10;;;14.30;99.90;;;;;;5022261;28;20204;-78
2023/09/24 07:42:20;;;;;;;4.87;3.00;;;14.30;99.90;;;;;;5018876;28;20203;-78
2023/09/24 07:44:46;;;;;;;4.80;3.27;;;14.40;99.90;;;;;;5039083;28;20177;-79
2023/09/24 07:47:12;;;;;;;5.67;3.90;;;14.40;99.90;;;;;;5025283;28;20510;-79
2023/09/24 07:49:37;;;;;;;9.60;7.20;;;14.50;99.90;;;;;;5020678;28;20419;-78
2023/09/24 07:52:03;;;;;;;7.40;5.20;;;14.50;99.90;;;;;;5006626;28;20569;-79
2023/09/24 07:54:29;;;;;;;5.83;4.73;;;14.50;99.90;;;;;;5023525;28;20200;-79
2023/09/24 07:56:54;;;;;;;4.40;3.60;;;14.50;99.90;;;;;;5025419;28;20184;-79
2023/09/24 07:59:20;;;;;;;7.33;3.10;;;14.60;99.90;;;;;;5005847;28;20683;-79
2023/09/24 08:01:46;;;;;;;4.93;3.00;;;14.70;99.90;;;;;;5024907;28;20189;-79
2023/09/24 08:04:12;;;;;;;5.40;3.37;;;14.70;99.90;;;;;;5021993;28;20686;-79
2023/09/24 08:06:38;;;;;;;3.83;2.97;;;14.70;99.90;;;;;;5018721;28;20177;-79
2023/09/24 08:09:05;;;;;;;5.90;3.50;;;14.70;99.90;;;;;;5020741;28;20458;-79
2023/09/24 08:11:32;;;;;;;6.20;4.30;;;14.80;99.90;;;;;;5023493;28;20299;-79
2023/09/24 08:13:57;;;;;;;6.03;4.20;;;14.80;99.90;;;;;;5023495;28;20439;-79
2023/09/24 08:16:23;;;;;;;4.20;3.53;;;14.90;99.90;;;;;;5011540;28;20424;-79
2023/09/24 08:18:49;;;;;;;10.07;5.80;;;15.00;99.90;;;;;;5025316;28;20244;-79
2023/09/24 08:21:15;;;;;;;6.53;3.87;;;15.00;99.90;;;;;;5027360;28;20184;-79
2023/09/24 08:23:41;;;;;;;4.10;3.00;;;15.00;99.90;;;;;;5021584;28;20459;-78
2023/09/24 08:26:07;;;;;;;7.33;4.37;;;15.10;99.90;;;;;;5005926;28;20420;-79
2023/09/24 08:28:32;;;;;;;6.80;3.90;;;15.10;99.90;;;;;;5010991;28;20238;-79
2023/09/24 08:31:07;;;;;;;5.40;4.17;;;15.20;99.90;;;;;;5028954;28;20460;-79
2023/09/24 08:33:33;;;;;;;3.03;2.27;;;15.20;99.90;;;;;;5022030;28;20302;-79
2023/09/24 08:35:58;;;;;;;2.70;2.40;;;15.30;99.90;;;;;;5009265;28;20466;-79
2023/09/24 08:38:24;;;;;;;4.93;2.67;;;15.30;99.90;;;;;;5044458;28;20191;-79
2023/09/24 08:40:51;;;;;;;4.17;2.90;;;15.40;99.90;;;;;;5039557;28;20242;-78
2023/09/24 08:43:18;;;;;;;8.93;3.90;;;15.40;99.90;;;;;;5011822;28;20258;-78
2023/09/24 08:45:44;;;;;;;4.90;3.40;;;15.50;99.90;;;;;;5018868;28;20423;-79
2023/09/24 08:48:11;;;;;;;6.07;4.30;;;15.50;99.90;;;;;;5023244;28;20450;-78
2023/09/24 08:50:38;;;;;;;10.23;5.30;;;15.60;99.90;;;;;;5024530;28;20783;-79
2023/09/24 08:53:11;;;;;;;3.97;2.77;;;15.60;99.90;;;;;;5026650;28;20443;-79
2023/09/24 08:55:46;;;;;;;3.50;2.60;;;15.70;99.90;;;;;;5032704;28;20463;-79
2023/09/24 08:58:12;;;;;;;9.13;3.77;;;15.80;99.90;;;;;;5040040;28;20852;-79
2023/09/24 09:00:39;;;;;;;4.60;3.00;;;15.90;99.90;;;;;;5044123;28;20429;-80
2023/09/24 09:03:04;;;;;;;3.80;2.30;;;15.90;99.90;;;;;;5010687;28;20281;-79
2023/09/24 09:05:35;;;;;;;4.70;4.20;;;16.00;99.90;;;;;;5024865;28;20431;-79
2023/09/24 09:08:03;;;;;;;6.03;3.10;;;16.10;99.90;;;;;;5032547;28;20169;-79
2023/09/24 09:10:31;;;;;;;4.90;3.30;;;16.10;99.90;;;;;;5029979;28;20472;-79
2023/09/24 09:13:13;;;;;;;2.97;2.20;;;16.20;99.90;;;;;;5026288;28;21573;-79
2023/09/24 09:15:42;;;;;;;6.87;3.77;;;16.30;99.90;;;;;;5025253;28;20426;-79
2023/09/24 09:18:28;;;;;;;3.30;2.07;;;16.30;99.90;;;;;;5029130;28;20411;-79
2023/09/24 09:21:00;;;;;;;10.83;2.90;;;16.40;99.90;;;;;;5005795;28;20418;-79
2023/09/24 09:23:37;;;;;;;4.70;3.10;;;16.50;99.90;;;;;;5021103;28;20556;-79
2023/09/24 09:26:03;;;;;;;5.90;2.63;;;16.50;99.90;;;;;;5026303;28;20920;-78
2023/09/24 09:28:34;;;;;;;3.53;2.27;;;16.60;99.90;;;;;;5039496;28;20443;-79
2023/09/24 09:31:07;;;;;;;4.27;2.57;;;16.60;99.90;;;;;;5023276;28;20439;-79
2023/09/24 09:33:38;;;;;;;5.93;2.93;;;16.70;99.90;;;;;;4999981;28;20479;-78
2023/09/24 09:36:18;;;;;;;3.43;2.20;;;16.70;99.90;;;;;;5010190;28;20427;-79
2023/09/24 09:38:44;;;;;;;6.17;2.87;;;16.80;99.90;;;;;;5024262;28;20496;-79
2023/09/24 09:41:11;;;;;;;4.10;2.43;;;16.80;99.90;;;;;;5018904;28;20469;-79
2023/09/24 09:43:38;;;;;;;9.80;2.70;;;16.90;99.90;;;;;;5021101;28;20757;-79
2023/09/24 09:46:07;;;;;;;6.37;3.20;;;17.00;99.90;;;;;;5028011;28;20438;-80
2023/09/24 09:48:33;;;;;;;7.47;5.13;;;17.00;99.90;;;;;;5023516;28;20415;-79
2023/09/24 09:51:06;;;;;;;10.30;3.83;;;17.10;99.90;;;;;;5029151;28;21066;-79
2023/09/24 09:53:34;;;;;;;3.13;2.57;;;17.20;99.90;;;;;;5018287;28;20435;-79
2023/09/24 09:56:02;;;;;;;4.30;2.70;;;17.30;99.90;;;;;;5024419;28;20837;-79
2023/09/24 09:58:30;;;;;;;8.03;5.70;;;17.30;99.90;;;;;;5003280;28;20435;-78
2023/09/24 10:00:56;;;;;;;3.50;2.43;;;17.30;99.90;;;;;;5021528;28;21011;-79
2023/09/24 10:03:23;;;;;;;3.23;2.43;;;17.40;99.90;;;;;;5018555;28;20479;-78
2023/09/24 10:05:50;;;;;;;7.13;2.67;;;17.40;99.90;;;;;;5025692;28;20187;-80
2023/09/24 10:08:41;;;;;;;4.50;2.50;;;17.50;99.90;;;;;;5028045;28;20449;-79
2023/09/24 10:11:09;;;;;;;5.90;2.70;;;17.60;99.90;;;;;;5017231;28;20450;-79
2023/09/24 10:13:44;;;;;;;6.63;2.57;;;17.70;99.90;;;;;;5024392;28;20439;-79
2023/09/24 10:16:32;;;;;;;4.90;2.27;;;17.70;99.90;;;;;;5020050;28;20448;-80
2023/09/24 10:19:00;;;;;;;4.07;2.40;;;17.80;99.90;;;;;;5003794;28;20423;-79
2023/09/24 10:21:30;;;;;;;4.60;2.70;;;17.90;99.90;;;;;;5020188;28;20518;-79
2023/09/24 10:23:57;;;;;;;6.37;2.83;;;17.90;99.90;;;;;;5015752;28;20460;-79
2023/09/24 10:26:44;;;;;;;6.10;2.53;;;18.00;99.90;;;;;;5027676;28;20419;-79
2023/09/24 10:29:13;;;;;;;6.13;3.53;;;18.00;99.90;;;;;;5040372;28;20443;-79
2023/09/24 10:32:07;;;;;;;5.50;3.33;;;18.10;99.90;;;;;;5029991;28;20427;-79
2023/09/24 10:34:51;;;;;;;6.90;3.07;;;18.20;99.90;;;;;;5029726;28;20500;-79
2023/09/24 10:37:18;;;;;;;5.83;3.80;;;18.20;99.90;;;;;;5030802;28;20836;-78
2023/09/24 10:40:05;;;;;;;5.83;2.87;;;18.30;99.90;;;;;;5027991;28;20472;-79
2023/09/24 10:42:32;;;;;;;6.50;5.23;;;18.30;99.90;;;;;;5035992;28;20439;-80
2023/09/24 10:45:06;;;;;;;9.00;6.83;;;18.40;99.90;;;;;;5022891;28;20442;-78
2023/09/24 10:47:40;;;;;;;15.83;13.30;;;18.40;99.90;;;;;;5015768;28;20448;-78
2023/09/24 10:50:11;;;;;;;5.80;3.50;;;18.50;99.90;;;;;;5013875;28;20450;-79
2023/09/24 10:52:52;;;;;;;5.47;3.50;;;18.60;99.90;;;;;;5022685;28;20439;-79
2023/09/24 10:55:20;;;;;;;4.83;2.80;;;18.60;99.90;;;;;;5017145;28;20458;-78
2023/09/24 10:57:46;;;;;;;3.83;2.70;;;18.60;99.90;;;;;;5001403;28;20476;-78
2023/09/24 11:00:20;;;;;;;4.00;2.43;;;18.70;99.90;;;;;;5002922;28;20442;-77
2023/09/24 11:02:53;;;;;;;4.70;3.47;;;18.80;99.90;;;;;;5009518;28;20497;-78
2023/09/24 11:05:18;;;;;;;3.57;2.27;;;18.90;99.90;;;;;;5015997;28;20474;-78
2023/09/24 11:07:45;;;;;;;5.30;3.77;;;19.00;99.90;;;;;;5036478;28;20478;-78
2023/09/24 11:10:11;;;;;;;5.63;2.97;;;19.00;99.90;;;;;;5020821;28;20216;-77
2023/09/24 11:12:37;;;;;;;3.47;2.70;;;19.10;99.90;;;;;;5023803;28;20470;-77
2023/09/24 11:15:03;;;;;;;5.20;2.60;;;19.20;99.90;;;;;;5018038;28;20280;-77
2023/09/24 11:17:29;;;;;;;4.20;3.00;;;19.30;99.90;;;;;;5003490;28;20457;-77
2023/09/24 11:19:55;;;;;;;5.93;2.90;;;19.30;99.90;;;;;;5018226;28;21250;-78
2023/09/24 11:22:25;;;;;;;5.40;3.07;;;19.30;99.90;;;;;;5018589;28;20439;-78
2023/09/24 11:25:06;;;;;;;5.57;2.90;;;19.40;99.90;;;;;;5017501;28;20674;-79
2023/09/24 11:27:49;;;;;;;4.77;2.50;;;19.50;99.90;;;;;;5027718;28;20480;-79
2023/09/24 11:30:22;;;;;;;3.53;2.60;;;19.50;99.90;;;;;;5030784;28;20470;-78
2023/09/24 11:32:50;;;;;;;4.20;2.80;;;19.70;99.90;;;;;;5021990;28;22677;-79
2023/09/24 11:35:17;;;;;;;3.20;2.50;;;19.80;99.90;;;;;;5021848;28;20443;-80
2023/09/24 11:38:01;;;;;;;5.47;2.80;;;19.90;99.90;;;;;;5023312;28;21168;-77
2023/09/24 11:40:33;;;;;;;5.83;2.67;;;20.00;99.90;;;;;;4997497;28;20472;-78
2023/09/24 11:43:00;;;;;;;3.40;2.63;;;20.00;99.90;;;;;;5018833;28;20459;-78
2023/09/24 11:45:35;;;;;;;7.13;5.63;;;20.20;99.90;;;;;;5020171;28;20454;-78
2023/09/24 11:48:02;;;;;;;7.50;5.60;;;20.40;99.90;;;;;;5022467;28;20467;-77
2023/09/24 11:50:29;;;;;;;7.90;6.27;;;20.50;99.90;;;;;;5033641;28;20442;-78
2023/09/24 11:52:54;;;;;;;6.83;6.00;;;20.70;99.90;;;;;;5016323;28;20455;-77
2023/09/24 11:55:20;;;;;;;4.87;3.10;;;21.10;99.90;;;;;;5020963;28;20534;-78
2023/09/24 11:57:45;;;;;;;8.70;4.50;;;21.90;99.90;;;;;;5022128;28;20427;-79
2023/09/24 12:00:12;;;;;;;6.77;3.40;;;22.90;99.90;;;;;;5038804;28;20223;-79
2023/09/24 12:02:39;;;;;;;5.63;4.07;;;23.60;99.90;;;;;;5021614;28;20201;-79
2023/09/24 12:05:05;;;;;;;5.93;3.50;;;24.40;99.90;;;;;;5020995;28;20432;-79
2023/09/24 12:07:33;;;;;;;4.13;3.17;;;25.20;99.90;;;;;;5020155;28;20477;-79
2023/09/24 12:10:01;;;;;;;4.80;3.50;;;26.00;99.30;;;;;;5021928;28;20460;-76
2023/09/24 12:12:27;;;;;;;4.73;3.73;;;26.60;96.40;;;;;;5021770;28;20470;-80
2023/09/24 12:14:53;;;;;;;3.33;2.90;;;27.20;93.90;;;;;;5037727;28;20446;-80
2023/09/24 12:17:19;;;;;;;4.40;4.00;;;27.50;90.50;;;;;;5019883;28;21399;-76
2023/09/24 12:19:46;;;;;;;5.90;4.93;;;28.00;90.40;;;;;;5020735;28;20185;-75
2023/09/24 12:22:12;;;;;;;4.80;3.93;;;28.40;87.20;;;;;;5017260;28;20434;-76
2023/09/24 12:24:37;;;;;;;4.10;3.17;;;28.90;84.50;;;;;;5024071;28;20467;-76
2023/09/24 12:27:03;;;;;;;3.23;2.73;;;29.30;80.30;;;;;;5014502;28;20185;-75
2023/09/24 12:29:30;;;;;;;3.10;2.80;;;29.70;76.00;;;;;;5017264;28;20177;-76
2023/09/24 12:31:56;;;;;;;3.60;2.50;;;30.00;73.10;;;;;;5014032;28;20219;-77
2023/09/24 12:34:22;;;;;;;5.00;3.20;;;30.30;67.80;;;;;;5012393;28;21073;-78
2023/09/24 12:36:48;;;;;;;3.00;2.70;;;30.50;64.10;;;;;;5006707;28;20595;-75
2023/09/24 12:39:19;;;;;;;3.60;2.73;;;30.70;60.10;;;;;;4998344;28;20438;-78
2023/09/24 12:41:46;;;;;;;3.40;2.90;;;30.80;60.30;;;;;;5021560;28;20234;-77
2023/09/24 12:44:11;;;;;;;3.80;3.13;;;31.00;58.70;;;;;;5001136;28;20561;-78
2023/09/24 12:46:37;;;;;;;4.43;2.90;;;31.00;58.00;;;;;;5016650;28;21104;-77
2023/09/24 12:49:03;;;;;;;4.00;2.80;;;31.30;57.40;;;;;;5020103;28;20190;-78